createdAt,value
2017-06-26T00:00:19.931Z,100386.56
2017-06-26T00:02:48.316Z,100382.69
2017-06-26T00:05:16.727Z,100389.94
2017-06-26T00:07:45.495Z,100390.84
2017-06-26T00:10:13.966Z,100388.66
2017-06-26T00:12:42.339Z,100393.64
2017-06-26T00:15:11.030Z,100391.56
2017-06-26T00:17:39.410Z,100387.73
2017-06-26T00:20:07.783Z,100389.94
2017-06-26T00:22:36.166Z,100389.08
2017-06-26T00:25:04.561Z,100386.19
2017-06-26T00:27:32.943Z,100379.48
2017-06-26T00:30:01.315Z,100368.07
2017-06-26T00:32:29.700Z,100363.71
2017-06-26T00:34:58.408Z,100360.28
2017-06-26T00:37:26.795Z,100369.41
2017-06-26T00:39:55.559Z,100365.87
2017-06-26T00:42:24.671Z,100356.91
2017-06-26T00:44:53.442Z,100365.33
2017-06-26T00:47:21.816Z,100355.09
2017-06-26T00:49:50.202Z,100371.07
2017-06-26T00:52:18.570Z,100367.84
2017-06-26T00:54:46.967Z,100371.39
2017-06-26T00:57:15.354Z,100372.84
2017-06-26T00:59:44.330Z,100378.86
2017-06-26T01:02:12.708Z,100371.23
2017-06-26T01:04:41.091Z,100372.73
2017-06-26T01:07:09.472Z,100366.45
2017-06-26T01:09:37.879Z,100370.70
2017-06-26T01:12:06.670Z,100368.50
2017-06-26T01:14:35.048Z,100369.84
2017-06-26T01:17:03.822Z,100380.40
2017-06-26T01:19:32.924Z,100375.04
2017-06-26T01:22:01.749Z,100380.20
2017-06-26T01:24:30.134Z,100382.94
2017-06-26T01:26:58.631Z,100378.54
2017-06-26T01:29:27.006Z,100369.04
2017-06-26T01:31:55.381Z,100373.44
2017-06-26T01:34:23.803Z,100360.78
2017-06-26T01:36:52.279Z,100360.15
2017-06-26T01:39:20.771Z,100353.04
2017-06-26T01:41:49.143Z,100339.84
2017-06-26T01:44:17.622Z,100336.59
2017-06-26T01:46:45.995Z,100334.23
2017-06-26T01:49:14.578Z,100332.68
2017-06-26T01:51:43.062Z,100337.98
2017-06-26T01:54:11.441Z,100338.83
2017-06-26T01:56:39.832Z,100344.96
2017-06-26T01:59:08.211Z,100348.70
2017-06-26T02:01:37.235Z,100344.26
2017-06-26T02:04:06.302Z,100339.77
2017-06-26T02:06:35.002Z,100337.45
2017-06-26T02:09:03.836Z,100351.16
2017-06-26T02:11:32.215Z,100342.89
2017-06-26T02:14:00.611Z,100338.55
2017-06-26T02:16:28.987Z,100329.84
2017-06-26T02:18:57.380Z,100330.19
2017-06-26T02:21:26.002Z,100324.29
2017-06-26T02:23:54.790Z,100323.75
2017-06-26T02:26:23.562Z,100326.59
2017-06-26T02:28:52.139Z,100329.33
2017-06-26T02:31:20.519Z,100314.11
2017-06-26T02:33:48.894Z,100311.45
2017-06-26T02:36:17.278Z,100307.43
2017-06-26T02:38:45.890Z,100300.59
2017-06-26T02:41:14.670Z,100288.78
2017-06-26T02:43:43.543Z,100279.14
2017-06-26T02:46:11.984Z,100284.86
2017-06-26T02:48:40.407Z,100274.74
2017-06-26T02:51:08.795Z,100275.56
2017-06-26T02:53:37.172Z,100279.46
2017-06-26T02:56:06.082Z,100277.91
2017-06-26T02:58:34.846Z,100275.62
2017-06-26T03:01:03.231Z,100282.84
2017-06-26T03:03:31.618Z,100281.02
2017-06-26T03:05:59.995Z,100286.05
2017-06-26T03:08:28.386Z,100288.36
2017-06-26T03:10:57.150Z,100292.42
2017-06-26T03:13:25.536Z,100298.16
2017-06-26T03:15:53.908Z,100302.78
2017-06-26T03:18:22.498Z,100300.78
2017-06-26T03:20:50.866Z,100307.98
2017-06-26T03:23:19.482Z,100306.13
2017-06-26T03:25:48.266Z,100309.87
2017-06-26T03:28:17.030Z,100314.95
2017-06-26T03:30:45.419Z,100309.59
2017-06-26T03:33:13.791Z,100312.49
2017-06-26T03:35:42.179Z,100312.01
2017-06-26T03:38:10.547Z,100301.43
2017-06-26T03:40:39.167Z,100298.00
2017-06-26T03:43:07.950Z,100301.26
2017-06-26T03:45:36.727Z,100296.20
2017-06-26T03:48:05.339Z,100292.84
2017-06-26T03:50:33.713Z,100285.56
2017-06-26T03:53:02.487Z,100284.86
2017-06-26T03:55:30.878Z,100279.28
2017-06-26T03:57:59.975Z,100278.36
2017-06-26T04:00:28.764Z,100277.76
2017-06-26T04:02:57.223Z,100257.87
2017-06-26T04:05:25.807Z,100253.00
2017-06-26T04:07:55.134Z,100261.70
2017-06-26T04:10:23.899Z,100265.86
2017-06-26T04:12:53.186Z,100271.36
2017-06-26T04:15:21.554Z,100260.99
2017-06-26T04:17:49.943Z,100269.13
2017-06-26T04:20:18.330Z,100263.30
2017-06-26T04:22:46.924Z,100267.60
2017-06-26T04:25:15.291Z,100262.97
2017-06-26T04:27:43.662Z,100263.37
2017-06-26T04:30:12.058Z,100263.61
2017-06-26T04:32:40.438Z,100267.28
2017-06-26T04:35:09.339Z,100259.64
2017-06-26T04:37:37.718Z,100253.81
2017-06-26T04:40:06.115Z,100251.47
2017-06-26T04:42:34.886Z,100251.02
2017-06-26T04:45:03.283Z,100254.52
2017-06-26T04:47:32.052Z,100246.71
2017-06-26T04:50:01.023Z,100245.61
2017-06-26T04:52:29.394Z,100244.42
2017-06-26T04:54:57.794Z,100242.56
2017-06-26T04:57:26.182Z,100245.33
2017-06-26T04:59:54.559Z,100235.61
2017-06-26T05:02:22.944Z,100242.70
2017-06-26T05:04:51.332Z,100231.80
2017-06-26T05:07:20.090Z,100238.92
2017-06-26T05:09:48.719Z,100234.09
2017-06-26T05:12:17.495Z,100236.20
2017-06-26T05:14:45.921Z,100240.13
2017-06-26T05:17:14.303Z,100233.69
2017-06-26T05:19:42.703Z,100225.48
2017-06-26T05:22:11.078Z,100231.92
2017-06-26T05:24:39.802Z,100229.19
2017-06-26T05:27:08.179Z,100230.05
2017-06-26T05:29:36.564Z,100227.79
2017-06-26T05:32:05.262Z,100228.98
2017-06-26T05:34:34.035Z,100242.61
2017-06-26T05:37:02.427Z,100234.33
2017-06-26T05:39:31.298Z,100237.68
2017-06-26T05:41:59.686Z,100234.33
2017-06-26T05:44:28.069Z,100233.88
2017-06-26T05:46:56.642Z,100234.25
2017-06-26T05:49:25.015Z,100242.61
2017-06-26T05:51:53.394Z,100252.73
2017-06-26T05:54:22.115Z,100248.88
2017-06-26T05:56:50.491Z,100250.53
2017-06-26T05:59:19.591Z,100247.84
2017-06-26T06:01:48.360Z,100240.36
2017-06-26T06:04:17.327Z,100254.20
2017-06-26T06:06:45.703Z,100259.50
2017-06-26T06:09:14.211Z,100251.94
2017-06-26T06:11:42.606Z,100252.94
2017-06-26T06:14:11.710Z,100253.07
2017-06-26T06:16:40.807Z,100258.36
2017-06-26T06:19:09.262Z,100263.58
2017-06-26T06:21:37.650Z,100277.89
2017-06-26T06:24:06.018Z,100275.44
2017-06-26T06:26:34.411Z,100280.35
2017-06-26T06:29:02.822Z,100290.52
2017-06-26T06:31:31.203Z,100307.97
2017-06-26T06:33:59.590Z,100299.80
2017-06-26T06:36:27.967Z,100308.31
2017-06-26T06:38:56.507Z,100317.30
2017-06-26T06:41:24.884Z,100321.23
2017-06-26T06:43:53.268Z,100330.61
2017-06-26T06:46:21.670Z,100338.20
2017-06-26T06:48:50.447Z,100339.39
2017-06-26T06:51:19.249Z,100349.58
2017-06-26T06:53:48.032Z,100340.60
2017-06-26T06:56:16.928Z,100348.72
2017-06-26T06:58:45.312Z,100352.55
2017-06-26T07:01:14.402Z,100352.50
2017-06-26T07:03:43.200Z,100357.88
2017-06-26T07:06:11.574Z,100358.78
2017-06-26T07:08:40.355Z,100361.61
2017-06-26T07:11:09.140Z,100371.29
2017-06-26T07:13:37.523Z,100376.86
2017-06-26T07:16:06.294Z,100384.78
2017-06-26T07:18:34.878Z,100373.23
2017-06-26T07:21:03.256Z,100364.95
2017-06-26T07:23:31.656Z,100358.38
2017-06-26T07:26:00.056Z,100357.12
2017-06-26T07:28:28.503Z,100344.41
2017-06-26T07:30:56.996Z,100351.15
2017-06-26T07:33:25.375Z,100358.51
2017-06-26T07:35:54.163Z,100365.66
2017-06-26T07:38:23.045Z,100357.42
2017-06-26T07:40:51.433Z,100363.08
2017-06-26T07:43:19.831Z,100373.67
2017-06-26T07:45:48.608Z,100374.84
2017-06-26T07:48:16.995Z,100373.18
2017-06-26T07:50:45.763Z,100368.28
2017-06-26T07:53:14.318Z,100378.22
2017-06-26T07:55:42.700Z,100373.98
2017-06-26T07:58:11.075Z,100380.10
2017-06-26T08:00:39.476Z,100387.47
2017-06-26T08:03:07.860Z,100391.05
2017-06-26T08:05:36.255Z,100392.85
2017-06-26T08:08:04.622Z,100395.69
2017-06-26T08:10:33.002Z,100394.84
2017-06-26T08:13:01.370Z,100410.15
2017-06-26T08:15:29.755Z,100403.58
2017-06-26T08:17:58.373Z,100410.97
2017-06-26T08:20:27.467Z,100413.57
2017-06-26T08:22:56.260Z,100409.50
2017-06-26T08:25:25.049Z,100412.04
2017-06-26T08:27:53.826Z,100423.61
2017-06-26T08:30:22.195Z,100413.45
2017-06-26T08:32:50.580Z,100420.79
2017-06-26T08:35:18.965Z,100425.08
2017-06-26T08:37:47.348Z,100420.45
2017-06-26T08:40:15.735Z,100426.24
2017-06-26T08:42:44.520Z,100429.28
2017-06-26T08:45:13.307Z,100435.42
2017-06-26T08:47:42.090Z,100442.30
2017-06-26T08:50:10.488Z,100437.13
2017-06-26T08:52:38.867Z,100439.31
2017-06-26T08:55:07.651Z,100442.47
2017-06-26T08:57:36.450Z,100448.21
2017-06-26T09:00:04.827Z,100440.08
2017-06-26T09:02:33.615Z,100448.47
2017-06-26T09:05:02.379Z,100451.43
2017-06-26T09:07:30.776Z,100446.83
2017-06-26T09:09:59.543Z,100447.13
2017-06-26T09:12:27.932Z,100449.64
2017-06-26T09:14:56.318Z,100461.95
2017-06-26T09:17:25.101Z,100460.85
2017-06-26T09:19:53.686Z,100458.67
2017-06-26T09:22:22.065Z,100456.88
2017-06-26T09:24:50.453Z,100456.92
2017-06-26T09:27:19.239Z,100450.20
2017-06-26T09:29:48.020Z,100458.28
2017-06-26T09:32:16.505Z,100454.11
2017-06-26T09:34:45.279Z,100452.48
2017-06-26T09:37:13.681Z,100453.85
2017-06-26T09:39:42.563Z,100456.09
2017-06-26T09:42:10.965Z,100464.03
2017-06-26T09:44:40.055Z,100465.63
2017-06-26T09:47:08.832Z,100469.22
2017-06-26T09:49:37.242Z,100463.17
2017-06-26T09:52:05.636Z,100469.84
2017-06-26T09:54:34.168Z,100474.42
2017-06-26T09:57:03.079Z,100485.84
2017-06-26T09:59:31.865Z,100472.38
2017-06-26T10:02:00.651Z,100479.47
2017-06-26T10:04:29.532Z,100478.18
2017-06-26T10:06:58.749Z,100479.95
2017-06-26T10:09:27.133Z,100479.86
2017-06-26T10:11:55.929Z,100480.95
2017-06-26T10:14:24.371Z,100476.42
2017-06-26T10:16:52.968Z,100483.78
2017-06-26T10:19:21.343Z,100487.00
2017-06-26T10:21:49.725Z,100472.30
2017-06-26T10:24:18.208Z,100483.08
2017-06-26T10:26:46.696Z,100479.88
2017-06-26T10:29:15.479Z,100476.84
2017-06-26T10:31:43.855Z,100476.13
2017-06-26T10:34:12.292Z,100481.31
2017-06-26T10:36:40.672Z,100477.34
2017-06-26T10:39:09.199Z,100482.06
2017-06-26T10:41:37.585Z,100483.84
2017-06-26T10:44:05.972Z,100478.14
2017-06-26T10:46:34.756Z,100494.35
2017-06-26T10:49:03.128Z,100495.06
2017-06-26T10:51:32.136Z,100497.98
2017-06-26T10:54:00.913Z,100498.84
2017-06-26T10:56:29.299Z,100491.05
2017-06-26T10:58:57.680Z,100488.79
2017-06-26T11:01:26.067Z,100490.50
2017-06-26T11:03:54.839Z,100492.61
2017-06-26T11:06:23.420Z,100494.06
2017-06-26T11:08:51.788Z,100492.03
2017-06-26T11:11:20.178Z,100491.90
2017-06-26T11:13:48.576Z,100498.50
2017-06-26T11:16:17.408Z,100500.16
2017-06-26T11:18:45.795Z,100496.70
2017-06-26T11:21:14.192Z,100492.47
2017-06-26T11:23:42.891Z,100497.64
2017-06-26T11:26:11.272Z,100495.42
2017-06-26T11:28:39.657Z,100502.41
2017-06-26T11:31:08.053Z,100498.44
2017-06-26T11:33:36.819Z,100498.54
2017-06-26T11:36:05.541Z,100503.42
2017-06-26T11:38:34.325Z,100507.98
2017-06-26T11:41:03.308Z,100507.37
2017-06-26T11:43:32.004Z,100490.48
2017-06-26T11:46:00.377Z,100494.87
2017-06-26T11:48:29.164Z,100497.67
2017-06-26T11:50:57.936Z,100490.97
2017-06-26T11:53:26.340Z,100482.89
2017-06-26T11:55:55.121Z,100483.42
2017-06-26T11:58:23.511Z,100482.45
2017-06-26T12:00:52.303Z,100489.56
2017-06-26T12:03:21.727Z,100487.66
2017-06-26T12:05:50.119Z,100474.53
2017-06-26T12:08:18.718Z,100477.64
2017-06-26T12:10:47.106Z,100473.55
2017-06-26T12:13:15.489Z,100479.66
2017-06-26T12:15:43.875Z,100473.02
2017-06-26T12:18:12.300Z,100472.83
2017-06-26T12:20:40.697Z,100470.47
2017-06-26T12:23:09.071Z,100473.72
2017-06-26T12:25:38.203Z,100466.47
2017-06-26T12:28:06.589Z,100467.81
2017-06-26T12:30:34.990Z,100461.61
2017-06-26T12:33:03.367Z,100461.08
2017-06-26T12:35:31.761Z,100468.59
2017-06-26T12:38:00.863Z,100465.86
2017-06-26T12:40:29.652Z,100461.00
2017-06-26T12:42:58.461Z,100458.34
2017-06-26T12:45:26.850Z,100465.44
2017-06-26T12:47:55.244Z,100470.60
2017-06-26T12:50:23.630Z,100465.79
2017-06-26T12:52:52.024Z,100467.23
2017-06-26T12:55:20.644Z,100461.56
2017-06-26T12:57:49.520Z,100455.03
2017-06-26T13:00:17.896Z,100452.26
2017-06-26T13:02:46.493Z,100455.21
2017-06-26T13:05:15.258Z,100458.29
2017-06-26T13:07:43.632Z,100460.84
2017-06-26T13:10:12.250Z,100460.06
2017-06-26T13:12:41.137Z,100457.44
2017-06-26T13:15:09.951Z,100465.48
2017-06-26T13:17:38.327Z,100477.29
2017-06-26T13:20:07.029Z,100473.45
2017-06-26T13:22:35.420Z,100458.34
2017-06-26T13:25:03.816Z,100485.84
2017-06-26T13:27:32.549Z,100484.27
2017-06-26T13:30:00.923Z,100486.62
2017-06-26T13:32:29.316Z,100483.15
2017-06-26T13:34:57.701Z,100488.09
2017-06-26T13:37:26.145Z,100491.13
2017-06-26T13:39:54.516Z,100492.78
2017-06-26T13:42:23.108Z,100507.91
2017-06-26T13:44:51.595Z,100503.66
2017-06-26T13:47:20.303Z,100498.97
2017-06-26T13:49:48.691Z,100494.17
2017-06-26T13:52:17.609Z,100496.02
2017-06-26T13:54:46.093Z,100500.92
2017-06-26T13:57:14.469Z,100498.86
2017-06-26T13:59:43.010Z,100505.79
2017-06-26T14:02:11.779Z,100509.61
2017-06-26T14:04:40.151Z,100511.31
2017-06-26T14:07:08.553Z,100504.03
2017-06-26T14:09:36.937Z,100513.16
2017-06-26T14:12:05.752Z,100500.58
2017-06-26T14:14:34.132Z,100503.18
2017-06-26T14:17:02.688Z,100498.20
2017-06-26T14:19:31.073Z,100499.71
2017-06-26T14:21:59.853Z,100497.20
2017-06-26T14:24:28.255Z,100505.13
2017-06-26T14:26:57.027Z,100501.68
2017-06-26T14:29:25.411Z,100506.33
2017-06-26T14:31:54.199Z,100508.55
2017-06-26T14:34:22.979Z,100514.98
2017-06-26T14:36:51.365Z,100512.77
2017-06-26T14:39:19.767Z,100516.81
2017-06-26T14:41:48.159Z,100522.50
2017-06-26T14:44:17.419Z,100522.63
2017-06-26T14:46:45.801Z,100528.41
2017-06-26T14:49:14.184Z,100520.30
2017-06-26T14:51:42.572Z,100512.28
2017-06-26T14:54:11.671Z,100520.62
2017-06-26T14:56:40.136Z,100523.61
2017-06-26T14:59:08.511Z,100523.37
2017-06-26T15:01:36.900Z,100522.64
2017-06-26T15:04:05.676Z,100518.52
2017-06-26T15:06:34.062Z,100521.98
2017-06-26T15:09:02.431Z,100518.88
2017-06-26T15:11:31.024Z,100521.87
2017-06-26T15:13:59.738Z,100517.41
2017-06-26T15:16:28.525Z,100518.37
2017-06-26T15:18:57.303Z,100518.75
2017-06-26T15:21:26.240Z,100521.49
2017-06-26T15:23:54.825Z,100524.92
2017-06-26T15:26:23.271Z,100515.52
2017-06-26T15:28:52.239Z,100513.72
2017-06-26T15:31:20.633Z,100509.02
2017-06-26T15:33:49.508Z,100511.93
2017-06-26T15:36:17.891Z,100512.75
2017-06-26T15:38:46.494Z,100506.70
2017-06-26T15:41:15.288Z,100507.86
2017-06-26T15:43:44.095Z,100506.59
2017-06-26T15:46:12.479Z,100509.41
2017-06-26T15:48:40.866Z,100507.64
2017-06-26T15:51:09.240Z,100502.82
2017-06-26T15:53:37.641Z,100500.66
2017-06-26T15:56:06.060Z,100504.75
2017-06-26T15:58:34.490Z,100503.50
2017-06-26T16:03:37.696Z,100502.36
2017-06-26T16:06:06.081Z,100505.08
2017-06-26T16:08:34.824Z,100494.23
2017-06-26T16:11:03.259Z,100497.93
2017-06-26T16:13:31.660Z,100497.09
2017-06-26T16:16:00.060Z,100492.63
2017-06-26T16:18:28.869Z,100495.77
2017-06-26T16:20:57.731Z,100489.75
2017-06-26T16:23:26.148Z,100489.41
2017-06-26T16:25:54.698Z,100489.41
2017-06-26T16:28:23.192Z,100494.60
2017-06-26T16:30:52.085Z,100496.40
2017-06-26T16:33:20.873Z,100492.81
2017-06-26T16:35:49.656Z,100497.83
2017-06-26T16:38:18.053Z,100498.91
2017-06-26T16:40:46.818Z,100491.63
2017-06-26T16:43:15.404Z,100488.13
2017-06-26T16:45:43.792Z,100496.31
2017-06-26T16:48:12.168Z,100495.53
2017-06-26T16:50:40.599Z,100488.23
2017-06-26T16:53:08.977Z,100482.97
2017-06-26T16:55:37.362Z,100496.45
2017-06-26T16:58:05.752Z,100499.03
2017-06-26T17:00:34.143Z,100499.47
2017-06-26T17:03:02.520Z,100511.65
2017-06-26T17:05:30.977Z,100508.09
2017-06-26T17:07:59.360Z,100510.60
2017-06-26T17:10:27.996Z,100515.59
2017-06-26T17:12:56.384Z,100506.94
2017-06-26T17:15:25.488Z,100514.52
2017-06-26T17:17:54.158Z,100505.67
2017-06-26T17:20:22.544Z,100495.11
2017-06-26T17:22:51.332Z,100509.82
2017-06-26T17:25:20.102Z,100512.66
2017-06-26T17:27:48.499Z,100513.35
2017-06-26T17:30:16.886Z,100512.50
2017-06-26T17:32:45.673Z,100509.52
2017-06-26T17:35:14.448Z,100510.80
2017-06-26T17:37:43.040Z,100521.56
2017-06-26T17:40:11.936Z,100517.80
2017-06-26T17:42:40.825Z,100511.73
2017-06-26T17:45:09.607Z,100507.94
2017-06-26T17:47:38.587Z,100507.09
2017-06-26T17:50:06.986Z,100507.09
2017-06-26T17:52:35.368Z,100497.63
2017-06-26T17:55:04.054Z,100500.63
2017-06-26T17:57:32.437Z,100498.95
2017-06-26T18:00:01.207Z,100502.64
2017-06-26T18:02:29.599Z,100504.11
2017-06-26T18:04:57.981Z,100506.75
2017-06-26T18:07:26.611Z,100512.96
2017-06-26T18:09:55.003Z,100518.86
2017-06-26T18:12:23.642Z,100510.97
2017-06-26T18:14:52.843Z,100516.21
2017-06-26T18:17:21.631Z,100519.03
2017-06-26T18:19:50.017Z,100510.98
2017-06-26T18:22:18.984Z,100504.03
2017-06-26T18:24:47.374Z,100503.66
2017-06-26T18:27:17.487Z,100502.36
2017-06-26T18:29:45.882Z,100502.70
2017-06-26T18:32:14.748Z,100508.30
2017-06-26T18:34:43.156Z,100516.40
2017-06-26T18:37:11.929Z,100514.72
2017-06-26T18:39:40.720Z,100510.45
2017-06-26T18:42:09.091Z,100511.37
2017-06-26T18:44:37.575Z,100517.09
2017-06-26T18:47:05.972Z,100521.52
2017-06-26T18:49:34.857Z,100521.98
2017-06-26T18:52:03.258Z,100513.09
2017-06-26T18:54:31.693Z,100515.75
2017-06-26T18:57:00.226Z,100505.66
2017-06-26T18:59:28.674Z,100514.59
2017-06-26T19:01:57.058Z,100524.04
2017-06-26T19:04:25.445Z,100526.25
2017-06-26T19:06:54.433Z,100534.52
2017-06-26T19:09:22.807Z,100529.42
2017-06-26T19:11:51.240Z,100535.11
2017-06-26T19:14:19.633Z,100533.59
2017-06-26T19:16:48.021Z,100533.14
2017-06-26T19:19:16.407Z,100536.69
2017-06-26T19:21:44.784Z,100536.75
2017-06-26T19:24:13.516Z,100543.73
2017-06-26T19:26:42.284Z,100546.84
2017-06-26T19:29:10.863Z,100542.08
2017-06-26T19:31:39.471Z,100555.64
2017-06-26T19:34:08.579Z,100549.77
2017-06-26T19:36:36.985Z,100550.47
2017-06-26T19:39:05.377Z,100550.34
2017-06-26T19:41:33.775Z,100556.78
2017-06-26T19:44:02.860Z,100553.35
2017-06-26T19:46:31.482Z,100562.97
2017-06-26T19:49:00.250Z,100563.92
2017-06-26T19:51:29.333Z,100572.34
2017-06-26T19:53:57.894Z,100572.61
2017-06-26T19:56:26.300Z,100572.64
2017-06-26T19:58:54.888Z,100570.87
2017-06-26T20:01:23.284Z,100576.88
2017-06-26T20:03:51.881Z,100575.80
2017-06-26T20:06:20.654Z,100577.11
2017-06-26T20:08:49.031Z,100573.38
2017-06-26T20:11:17.419Z,100575.45
2017-06-26T20:13:45.853Z,100571.86
2017-06-26T20:16:14.239Z,100583.84
2017-06-26T20:18:42.815Z,100579.81
2017-06-26T20:21:11.219Z,100580.28
2017-06-26T20:23:39.604Z,100583.40
2017-06-26T20:26:07.992Z,100579.30
2017-06-26T20:28:36.373Z,100583.09
2017-06-26T20:31:05.300Z,100582.11
2017-06-26T20:33:34.387Z,100586.84
2017-06-26T20:36:03.164Z,100591.43
2017-06-26T20:38:31.862Z,100585.00
2017-06-26T20:41:00.668Z,100589.09
2017-06-26T20:43:29.082Z,100591.73
2017-06-26T20:45:57.469Z,100597.10
2017-06-26T20:48:25.971Z,100602.66
2017-06-26T20:50:55.273Z,100602.98
2017-06-26T20:53:23.656Z,100605.02
2017-06-26T20:55:52.051Z,100607.33
2017-06-26T20:58:20.836Z,100600.36
2017-06-26T21:00:49.241Z,100612.64
2017-06-26T21:03:17.639Z,100608.33
2017-06-26T21:05:46.048Z,100611.40
2017-06-26T21:08:14.436Z,100609.78
2017-06-26T21:10:42.979Z,100619.73
2017-06-26T21:13:11.350Z,100618.52
2017-06-26T21:15:39.736Z,100618.06
2017-06-26T21:18:08.400Z,100623.41
2017-06-26T21:20:37.181Z,100632.05
2017-06-26T21:23:05.981Z,100630.07
2017-06-26T21:25:34.756Z,100628.08
2017-06-26T21:28:03.553Z,100637.80
2017-06-26T21:30:32.326Z,100635.22
2017-06-26T21:33:00.720Z,100642.45
2017-06-26T21:35:30.432Z,100640.16
2017-06-26T21:37:59.228Z,100650.25
2017-06-26T21:40:28.094Z,100644.73
2017-06-26T21:42:56.471Z,100640.81
2017-06-26T21:45:24.869Z,100650.01
2017-06-26T21:47:53.736Z,100644.91
2017-06-26T21:50:22.141Z,100643.78
2017-06-26T21:52:50.928Z,100649.73
2017-06-26T21:55:19.909Z,100649.55
2017-06-26T21:57:48.296Z,100649.81
2017-06-26T22:00:16.681Z,100649.20
2017-06-26T22:02:45.527Z,100656.01
2017-06-26T22:05:13.913Z,100659.10
2017-06-26T22:07:42.321Z,100652.73
2017-06-26T22:10:10.795Z,100661.14
2017-06-26T22:12:39.192Z,100660.75
2017-06-26T22:15:07.997Z,100660.50
2017-06-26T22:17:36.893Z,100663.67
2017-06-26T22:20:05.277Z,100666.27
2017-06-26T22:22:33.666Z,100671.08
2017-06-26T22:25:02.064Z,100678.08
2017-06-26T22:27:30.475Z,100677.01
2017-06-26T22:29:59.097Z,100687.31
2017-06-26T22:32:27.483Z,100688.98
2017-06-26T22:34:55.889Z,100694.70
2017-06-26T22:37:24.499Z,100690.53
2017-06-26T22:39:53.009Z,100690.11
2017-06-26T22:42:21.779Z,100689.13
2017-06-26T22:44:50.697Z,100691.37
2017-06-26T22:47:19.492Z,100695.98
2017-06-26T22:49:48.272Z,100693.05
2017-06-26T22:52:17.068Z,100692.54
2017-06-26T22:54:45.835Z,100681.47
2017-06-26T22:57:14.522Z,100683.24
2017-06-26T22:59:43.226Z,100689.33
2017-06-26T23:02:13.255Z,100686.41
2017-06-26T23:04:41.653Z,100678.56
2017-06-26T23:07:10.311Z,100673.06
2017-06-26T23:09:39.184Z,100670.25
2017-06-26T23:12:07.557Z,100674.13
2017-06-26T23:14:36.160Z,100676.23
2017-06-26T23:17:04.935Z,100677.96
2017-06-26T23:19:33.321Z,100679.88
2017-06-26T23:22:01.749Z,100675.48
2017-06-26T23:24:30.132Z,100672.66
2017-06-26T23:26:58.519Z,100667.64
2017-06-26T23:29:26.895Z,100670.13
2017-06-26T23:31:55.395Z,100664.63
2017-06-26T23:34:23.770Z,100668.64
2017-06-26T23:36:52.405Z,100668.64
2017-06-26T23:39:21.192Z,100668.17
2017-06-26T23:41:49.581Z,100667.10
2017-06-26T23:44:18.439Z,100675.22
2017-06-26T23:46:46.826Z,100677.56
2017-06-26T23:49:15.224Z,100680.56
2017-06-26T23:51:44.012Z,100678.64
2017-06-26T23:54:12.833Z,100680.45
2017-06-26T23:56:41.216Z,100684.47
2017-06-26T23:59:09.753Z,100687.28
